Time;durP1;ratioP1;P1;durP2;ratioP2;P2;SDS_P1;SDS_P2;PMS_P1;PMS_P2;Temp;Humidity;BMP_temperature;BMP_pressure;BME280_temperature;BME280_humidity;BME280_pressure;Samples;Min_cycle;Max_cycle;Signal;HPM_P1;HPM_P2
2023/03/28 00:00:42;;;;;;;2.50;1.87;;;9.00;52.70;;;;;;5015405;28;20442;-44
2023/03/28 00:03:08;;;;;;;2.60;1.77;;;8.90;52.50;;;;;;5030051;28;20229;-46
2023/03/28 00:05:33;;;;;;;2.50;1.73;;;9.00;52.50;;;;;;5028252;28;20683;-44
2023/03/28 00:07:59;;;;;;;3.20;1.87;;;8.90;52.40;;;;;;5018199;28;20279;-44
2023/03/28 00:10:25;;;;;;;3.67;1.60;;;8.90;52.50;;;;;;5026594;28;20237;-43
2023/03/28 00:12:51;;;;;;;2.70;1.90;;;8.90;52.50;;;;;;5022201;28;20217;-44
2023/03/28 00:15:16;;;;;;;3.10;1.90;;;8.80;52.60;;;;;;5017117;28;20724;-44
2023/03/28 00:17:42;;;;;;;3.60;2.03;;;8.80;52.70;;;;;;5026922;28;20219;-45
2023/03/28 00:20:09;;;;;;;3.43;2.00;;;8.80;52.50;;;;;;5028472;28;20201;-44
2023/03/28 00:22:37;;;;;;;2.03;1.83;;;8.90;52.40;;;;;;5021344;28;20554;-44
2023/03/28 00:25:06;;;;;;;4.77;2.33;;;8.80;52.10;;;;;;5025875;28;20510;-44
2023/03/28 00:27:33;;;;;;;1.70;1.60;;;8.80;52.70;;;;;;5037747;28;20559;-44
2023/03/28 00:30:00;;;;;;;2.30;1.60;;;8.90;52.10;;;;;;5017115;28;20574;-44
2023/03/28 00:32:26;;;;;;;2.10;1.67;;;8.90;52.00;;;;;;5025786;28;20451;-43
2023/03/28 00:34:51;;;;;;;3.23;2.60;;;8.90;51.90;;;;;;5021571;28;20444;-44
2023/03/28 00:37:17;;;;;;;3.67;2.00;;;8.90;51.80;;;;;;5026349;28;20227;-43
2023/03/28 00:39:48;;;;;;;3.50;2.17;;;8.90;51.60;;;;;;5028481;28;20247;-44
2023/03/28 00:42:18;;;;;;;2.30;1.80;;;8.90;51.50;;;;;;5024951;28;21215;-44
2023/03/28 00:44:47;;;;;;;2.63;1.43;;;8.90;51.40;;;;;;5018797;28;20448;-44
2023/03/28 00:47:16;;;;;;;1.73;1.63;;;8.80;51.30;;;;;;5016137;28;20476;-44
2023/03/28 00:49:45;;;;;;;1.73;1.60;;;8.70;51.30;;;;;;5014714;28;20526;-46
2023/03/28 00:52:14;;;;;;;4.00;1.73;;;8.70;51.20;;;;;;5022759;28;20520;-44
2023/03/28 00:54:40;;;;;;;2.10;1.80;;;8.70;51.30;;;;;;5021973;28;20444;-44
2023/03/28 00:57:07;;;;;;;7.30;2.17;;;8.60;51.20;;;;;;5022587;28;20530;-44
2023/03/28 00:59:35;;;;;;;2.63;1.40;;;8.50;51.40;;;;;;5022575;28;20543;-44
2023/03/28 01:02:01;;;;;;;3.10;1.73;;;8.50;51.50;;;;;;5017892;28;20445;-45
2023/03/28 01:04:35;;;;;;;2.30;1.77;;;8.40;51.70;;;;;;5021492;28;21005;-43
2023/03/28 01:07:01;;;;;;;2.87;1.87;;;8.40;51.70;;;;;;5020507;28;20197;-45
2023/03/28 01:09:27;;;;;;;1.90;1.23;;;8.30;51.70;;;;;;5017530;28;20480;-43
2023/03/28 01:11:55;;;;;;;1.50;1.40;;;8.40;51.70;;;;;;5021794;28;21283;-44
2023/03/28 01:14:23;;;;;;;2.80;1.70;;;8.40;51.60;;;;;;5019239;28;20193;-44
2023/03/28 01:16:50;;;;;;;2.40;1.83;;;8.30;51.50;;;;;;5020069;28;20845;-44
2023/03/28 01:19:35;;;;;;;8.97;1.90;;;8.30;51.70;;;;;;5020145;28;22750;-44
2023/03/28 01:22:25;;;;;;;1.63;1.53;;;8.20;51.80;;;;;;5018663;28;20544;-43
2023/03/28 01:25:22;;;;;;;1.60;1.50;;;8.20;51.80;;;;;;5017520;28;20432;-44
2023/03/28 01:28:22;;;;;;;2.73;1.87;;;8.20;51.90;;;;;;5022657;28;20467;-44
2023/03/28 01:31:28;;;;;;;1.77;1.13;;;8.20;51.90;;;;;;4996489;28;21016;-49
2023/03/28 01:34:27;;;;;;;3.40;1.83;;;8.20;52.00;;;;;;5020226;28;20809;-45
2023/03/28 01:37:04;;;;;;;2.57;1.63;;;8.10;51.90;;;;;;5019703;28;20444;-44
2023/03/28 01:39:51;;;;;;;2.23;2.03;;;8.10;51.90;;;;;;5022823;28;20450;-44
2023/03/28 01:42:31;;;;;;;3.13;1.63;;;8.10;51.90;;;;;;5023905;28;20497;-45
2023/03/28 01:45:16;;;;;;;1.77;1.67;;;8.10;52.10;;;;;;5020437;28;20436;-44
2023/03/28 01:47:59;;;;;;;2.70;1.80;;;8.00;52.20;;;;;;5017638;28;20820;-44
2023/03/28 01:50:43;;;;;;;4.23;1.93;;;8.00;52.20;;;;;;5018078;28;20482;-43
2023/03/28 01:53:18;;;;;;;2.60;1.60;;;8.00;52.20;;;;;;5020262;28;20455;-44
2023/03/28 01:55:51;;;;;;;2.70;1.60;;;8.00;52.00;;;;;;5024004;28;20513;-43
2023/03/28 01:58:36;;;;;;;2.00;1.90;;;8.00;52.40;;;;;;5027443;28;20534;-44
2023/03/28 02:01:08;;;;;;;2.10;1.63;;;8.00;52.70;;;;;;5028763;28;20506;-44
2023/03/28 02:03:36;;;;;;;5.60;1.80;;;8.00;52.70;;;;;;5025394;28;20483;-44
2023/03/28 02:06:07;;;;;;;3.77;1.60;;;8.00;52.50;;;;;;5028799;28;20436;-43
2023/03/28 02:08:36;;;;;;;4.13;2.40;;;8.00;52.40;;;;;;5030821;28;20444;-44
2023/03/28 02:11:02;;;;;;;5.43;2.13;;;8.00;52.20;;;;;;5032942;28;20479;-44
2023/03/28 02:13:52;;;;;;;1.90;1.50;;;8.00;52.00;;;;;;5025528;28;20439;-44
2023/03/28 02:16:21;;;;;;;3.30;1.90;;;8.00;52.20;;;;;;5021996;28;20452;-45
2023/03/28 02:18:53;;;;;;;4.97;2.27;;;7.90;52.20;;;;;;5026697;28;20456;-43
2023/03/28 02:21:24;;;;;;;2.40;1.80;;;7.90;52.40;;;;;;5023185;28;20935;-44
2023/03/28 02:23:53;;;;;;;5.70;2.27;;;7.90;52.60;;;;;;5021779;28;20469;-44
2023/03/28 02:26:21;;;;;;;4.37;2.10;;;7.90;52.70;;;;;;5026765;28;20452;-43
2023/03/28 02:28:51;;;;;;;4.30;1.80;;;7.90;52.70;;;;;;5028416;28;20482;-46
2023/03/28 02:31:17;;;;;;;3.83;1.50;;;7.90;52.80;;;;;;5028852;28;20499;-45
2023/03/28 02:33:45;;;;;;;2.17;1.40;;;7.90;52.70;;;;;;5025396;28;20436;-44
2023/03/28 02:36:38;;;;;;;3.10;1.93;;;7.90;52.70;;;;;;5022261;28;20447;-44
2023/03/28 02:39:29;;;;;;;8.70;1.97;;;7.90;52.60;;;;;;5028357;28;20478;-43
2023/03/28 02:42:12;;;;;;;3.10;2.00;;;8.00;52.70;;;;;;5027952;28;20464;-44
2023/03/28 02:45:05;;;;;;;3.43;2.40;;;8.00;52.60;;;;;;5027213;28;20444;-43
2023/03/28 02:47:45;;;;;;;2.43;2.10;;;8.00;52.50;;;;;;5019680;28;20902;-46
2023/03/28 02:50:56;;;;;;;1.90;1.50;;;7.90;52.20;;;;;;5024823;28;20488;-44
2023/03/28 02:53:31;;;;;;;4.03;1.77;;;7.90;52.30;;;;;;5011498;28;20507;-44
2023/03/28 02:56:18;;;;;;;2.30;1.90;;;7.90;52.40;;;;;;5027034;28;20898;-44
2023/03/28 02:58:52;;;;;;;3.93;1.93;;;7.90;52.30;;;;;;5024274;28;20466;-43
2023/03/28 03:01:18;;;;;;;2.53;2.33;;;7.90;52.50;;;;;;5023799;28;20448;-46
2023/03/28 03:03:44;;;;;;;2.73;1.87;;;7.80;52.50;;;;;;5023582;28;20463;-45
2023/03/28 03:06:11;;;;;;;4.10;2.47;;;7.90;52.50;;;;;;5025867;28;20502;-44
2023/03/28 03:08:36;;;;;;;3.57;2.07;;;7.80;52.40;;;;;;5030097;28;20495;-43
2023/03/28 03:11:02;;;;;;;2.77;2.47;;;7.80;52.50;;;;;;5028784;28;20498;-43
2023/03/28 03:13:28;;;;;;;4.50;2.50;;;7.80;52.40;;;;;;5025909;28;20197;-46
2023/03/28 03:15:54;;;;;;;5.17;2.13;;;7.80;52.90;;;;;;5025049;28;20201;-43
2023/03/28 03:18:20;;;;;;;3.17;2.33;;;7.70;52.70;;;;;;5020314;28;20205;-45
2023/03/28 03:20:46;;;;;;;2.50;2.00;;;7.80;52.80;;;;;;5019685;28;21150;-43
2023/03/28 03:23:12;;;;;;;2.60;2.00;;;7.70;52.50;;;;;;5026703;28;20675;-43
2023/03/28 03:25:38;;;;;;;4.67;2.40;;;7.70;52.70;;;;;;5020881;28;20193;-43
2023/03/28 03:28:04;;;;;;;4.23;2.27;;;7.70;52.90;;;;;;5023642;28;20197;-45
2023/03/28 03:30:31;;;;;;;5.20;2.60;;;7.70;52.90;;;;;;5019644;28;20535;-44
2023/03/28 03:32:57;;;;;;;3.63;2.07;;;7.70;52.90;;;;;;5028967;28;20447;-44
2023/03/28 03:35:23;;;;;;;4.70;2.37;;;7.70;53.00;;;;;;5024760;28;20444;-43
2023/03/28 03:37:48;;;;;;;2.60;2.40;;;7.60;53.00;;;;;;5020819;28;20498;-44
2023/03/28 03:40:14;;;;;;;3.93;2.23;;;7.70;53.20;;;;;;5017276;28;20618;-45
2023/03/28 03:42:40;;;;;;;5.07;2.37;;;7.70;53.10;;;;;;5019668;28;20292;-43
2023/03/28 03:45:06;;;;;;;4.03;2.43;;;7.70;53.00;;;;;;5021629;28;20197;-48
2023/03/28 03:47:32;;;;;;;3.00;2.07;;;7.60;52.90;;;;;;5021176;28;21170;-44
2023/03/28 03:49:58;;;;;;;3.10;2.20;;;7.60;52.90;;;;;;5012997;28;20487;-45
2023/03/28 03:52:23;;;;;;;2.80;2.10;;;7.60;53.00;;;;;;5017707;28;20209;-45
2023/03/28 03:54:49;;;;;;;4.10;2.40;;;7.60;53.00;;;;;;5020599;28;20316;-43
2023/03/28 03:57:15;;;;;;;3.97;2.63;;;7.50;52.80;;;;;;5014664;28;20201;-44
2023/03/28 03:59:40;;;;;;;2.37;2.17;;;7.50;52.70;;;;;;5021639;28;20201;-43
2023/03/28 04:02:06;;;;;;;4.07;2.60;;;7.50;52.60;;;;;;5018742;28;20236;-45
2023/03/28 04:04:31;;;;;;;3.27;2.20;;;7.40;52.50;;;;;;5020403;28;20240;-44
2023/03/28 04:06:57;;;;;;;5.83;2.73;;;7.40;52.50;;;;;;5025916;28;20205;-43
2023/03/28 04:09:26;;;;;;;3.53;2.47;;;7.40;52.60;;;;;;5026328;28;20247;-48
2023/03/28 04:11:53;;;;;;;3.00;2.70;;;7.30;53.40;;;;;;5019519;28;20477;-45
2023/03/28 04:14:19;;;;;;;4.80;3.03;;;7.30;53.00;;;;;;5020202;28;20853;-45
2023/03/28 04:16:45;;;;;;;5.23;2.70;;;7.20;53.10;;;;;;5026113;28;20447;-44
2023/03/28 04:19:12;;;;;;;5.53;2.87;;;7.20;53.30;;;;;;5026402;28;20463;-44
2023/03/28 04:21:41;;;;;;;4.93;2.67;;;7.20;53.10;;;;;;5018266;28;20517;-44
2023/03/28 04:24:07;;;;;;;4.07;3.07;;;7.20;53.30;;;;;;5027906;28;20456;-44
2023/03/28 04:26:36;;;;;;;4.50;2.00;;;7.20;53.40;;;;;;5027429;28;20462;-45
2023/03/28 04:29:04;;;;;;;4.30;2.80;;;7.20;53.40;;;;;;5042874;28;20436;-45
2023/03/28 04:31:34;;;;;;;2.47;2.27;;;7.20;53.30;;;;;;5030518;28;20503;-43
2023/03/28 04:34:04;;;;;;;3.03;2.50;;;7.20;53.30;;;;;;5020243;28;20444;-46
2023/03/28 04:36:30;;;;;;;3.13;2.60;;;7.20;53.30;;;;;;5022226;28;20506;-46
2023/03/28 04:38:57;;;;;;;2.57;2.37;;;7.20;53.20;;;;;;5032602;28;20419;-46
2023/03/28 04:41:24;;;;;;;3.23;2.60;;;7.10;53.00;;;;;;5050034;28;20427;-49
2023/03/28 04:43:51;;;;;;;4.93;2.80;;;7.00;53.10;;;;;;5037403;28;20838;-47
2023/03/28 04:46:17;;;;;;;8.10;2.87;;;7.00;53.50;;;;;;5021434;28;20459;-46
2023/03/28 04:48:42;;;;;;;4.87;3.27;;;7.00;53.30;;;;;;5029786;28;20920;-45
2023/03/28 04:51:08;;;;;;;5.43;3.00;;;7.00;53.40;;;;;;5030134;28;20494;-45
2023/03/28 04:53:35;;;;;;;6.17;3.33;;;7.00;53.30;;;;;;5027059;28;20189;-44
2023/03/28 04:56:01;;;;;;;6.30;3.50;;;6.90;53.30;;;;;;5028234;28;20263;-44
2023/03/28 04:58:27;;;;;;;5.37;3.43;;;6.90;53.20;;;;;;5023632;28;20535;-43
2023/03/28 05:00:52;;;;;;;4.50;3.50;;;6.90;53.10;;;;;;5021547;28;20456;-45
2023/03/28 05:03:21;;;;;;;3.50;3.20;;;6.80;53.40;;;;;;5019335;28;20920;-45
2023/03/28 05:05:47;;;;;;;13.67;4.40;;;6.80;54.30;;;;;;5020294;28;20275;-44
2023/03/28 05:08:15;;;;;;;4.20;3.60;;;6.80;53.80;;;;;;5021205;28;20440;-43
2023/03/28 05:10:44;;;;;;;4.37;3.00;;;6.80;53.70;;;;;;5021637;28;20483;-44
2023/03/28 05:13:09;;;;;;;5.13;2.77;;;6.80;53.60;;;;;;5022391;28;21384;-44
2023/03/28 05:15:35;;;;;;;5.47;3.53;;;6.70;53.90;;;;;;5019025;28;20474;-45
2023/03/28 05:18:00;;;;;;;3.87;2.90;;;6.70;54.10;;;;;;5018798;28;20243;-47
2023/03/28 05:20:26;;;;;;;4.77;3.30;;;6.70;54.10;;;;;;5017958;28;20186;-43
2023/03/28 05:22:52;;;;;;;4.90;2.70;;;6.70;54.00;;;;;;5023200;28;20200;-49
2023/03/28 05:25:18;;;;;;;4.70;2.93;;;6.70;54.20;;;;;;5031917;28;21244;-44
2023/03/28 05:27:44;;;;;;;4.30;2.80;;;7.00;56.30;;;;;;5019239;28;20432;-45
2023/03/28 05:30:11;;;;;;;3.33;2.93;;;7.40;57.60;;;;;;5019466;28;20586;-45
2023/03/28 05:32:37;;;;;;;4.10;2.90;;;7.80;56.70;;;;;;5020929;28;21192;-44
2023/03/28 05:35:04;;;;;;;4.50;3.07;;;8.10;56.00;;;;;;5023347;28;20510;-45
2023/03/28 05:37:30;;;;;;;3.30;3.00;;;8.40;54.30;;;;;;5039043;28;20451;-49
2023/03/28 05:39:56;;;;;;;4.50;4.10;;;8.60;53.70;;;;;;5027266;28;20482;-44
2023/03/28 05:42:21;;;;;;;4.33;3.53;;;8.90;53.70;;;;;;5025967;28;20312;-46
2023/03/28 05:44:47;;;;;;;4.83;3.73;;;9.10;53.20;;;;;;5028873;28;20251;-47
2023/03/28 05:47:13;;;;;;;3.33;3.03;;;9.20;52.30;;;;;;5025442;28;20535;-46
2023/03/28 05:49:38;;;;;;;4.40;3.37;;;9.30;51.70;;;;;;5026615;28;20587;-44
2023/03/28 05:52:04;;;;;;;5.80;3.60;;;9.30;50.50;;;;;;5033248;28;20248;-49
2023/03/28 05:54:30;;;;;;;6.87;4.33;;;9.40;49.90;;;;;;5027421;28;20225;-47
2023/03/28 05:56:56;;;;;;;5.87;4.10;;;9.40;49.80;;;;;;5030203;28;21026;-46
2023/03/28 05:59:23;;;;;;;9.37;4.40;;;9.30;49.50;;;;;;5031388;28;20197;-49
2023/03/28 06:01:54;;;;;;;7.03;4.07;;;9.40;50.40;;;;;;5029396;28;20237;-46
2023/03/28 06:04:20;;;;;;;4.60;3.70;;;9.50;50.50;;;;;;5028177;28;20452;-48
2023/03/28 06:06:47;;;;;;;6.27;3.47;;;9.60;50.60;;;;;;5030508;28;20942;-46
2023/03/28 06:09:14;;;;;;;5.80;4.07;;;9.70;50.40;;;;;;5029633;28;20435;-49
2023/03/28 06:11:40;;;;;;;5.30;4.20;;;9.80;49.10;;;;;;5029397;28;21005;-46
2023/03/28 06:14:06;;;;;;;6.87;4.07;;;9.80;49.70;;;;;;5031618;28;20447;-46
2023/03/28 06:16:31;;;;;;;5.30;4.40;;;9.80;49.90;;;;;;5020729;28;20297;-48
2023/03/28 06:18:57;;;;;;;4.70;4.30;;;9.90;49.50;;;;;;5030218;28;20527;-45
2023/03/28 06:21:22;;;;;;;8.63;4.50;;;10.10;48.70;;;;;;5037490;28;20275;-46
2023/03/28 06:23:48;;;;;;;8.93;4.50;;;10.20;48.40;;;;;;5032569;28;20201;-47
2023/03/28 06:26:14;;;;;;;7.33;4.30;;;10.30;48.20;;;;;;5031744;28;20193;-49
2023/03/28 06:28:40;;;;;;;6.10;4.40;;;10.40;48.00;;;;;;5031325;28;20194;-47
2023/03/28 06:31:05;;;;;;;7.47;4.50;;;10.50;48.20;;;;;;5033049;28;20983;-45
2023/03/28 06:33:31;;;;;;;10.20;4.20;;;10.60;48.10;;;;;;5027025;28;20192;-44
2023/03/28 06:35:57;;;;;;;5.33;4.33;;;10.80;47.60;;;;;;5039231;28;20195;-50
2023/03/28 06:38:23;;;;;;;5.60;4.47;;;10.80;47.40;;;;;;5031692;28;20339;-46
2023/03/28 06:40:48;;;;;;;7.40;5.20;;;10.90;47.20;;;;;;5030054;28;20194;-44
2023/03/28 06:43:14;;;;;;;4.73;4.33;;;11.00;47.30;;;;;;5040622;28;20443;-45
2023/03/28 06:45:40;;;;;;;8.93;4.87;;;11.20;47.10;;;;;;5035351;28;20194;-46
2023/03/28 06:48:05;;;;;;;7.33;4.40;;;11.30;47.00;;;;;;5029666;28;20671;-45
2023/03/28 06:53:06;;;;;;;6.67;4.37;;;11.50;46.60;;;;;;4583403;23;20350;-46
2023/03/28 06:55:34;;;;;;;6.80;4.43;;;11.60;46.60;;;;;;5046076;28;20537;-46
2023/03/28 06:57:59;;;;;;;4.10;3.60;;;11.60;46.40;;;;;;5043663;28;20199;-46
2023/03/28 07:00:25;;;;;;;7.50;3.67;;;11.60;46.50;;;;;;5038370;28;20952;-46
2023/03/28 07:02:50;;;;;;;5.90;3.80;;;11.80;46.60;;;;;;5034300;28;20185;-47
2023/03/28 07:05:16;;;;;;;5.80;3.63;;;12.00;46.30;;;;;;5039730;28;20196;-46
2023/03/28 07:07:42;;;;;;;4.50;3.00;;;12.20;46.20;;;;;;5038311;28;20660;-46
2023/03/28 07:10:08;;;;;;;3.40;2.60;;;12.40;47.30;;;;;;5038167;28;20228;-47
2023/03/28 07:12:33;;;;;;;8.00;4.17;;;12.50;50.80;;;;;;5039876;28;20195;-46
2023/03/28 07:14:59;;;;;;;6.90;4.80;;;13.00;48.40;;;;;;5040819;28;20867;-46
2023/03/28 07:17:24;;;;;;;6.90;4.40;;;13.40;46.10;;;;;;5042127;28;20261;-49
2023/03/28 07:19:52;;;;;;;12.63;4.03;;;13.70;44.70;;;;;;5045478;28;20212;-45
2023/03/28 07:22:18;;;;;;;6.07;4.80;;;13.80;43.50;;;;;;5038736;28;20205;-47
2023/03/28 07:24:43;;;;;;;8.87;3.73;;;13.90;42.90;;;;;;5034630;28;20439;-46
2023/03/28 07:27:09;;;;;;;6.23;3.90;;;14.10;43.00;;;;;;5047704;28;20208;-46
2023/03/28 07:29:34;;;;;;;6.50;3.60;;;14.20;42.30;;;;;;5036943;28;20237;-47
2023/03/28 07:32:00;;;;;;;8.70;3.90;;;14.30;42.20;;;;;;5033791;28;20202;-45
2023/03/28 07:34:25;;;;;;;8.00;3.00;;;14.40;41.40;;;;;;5040867;28;20189;-46
2023/03/28 07:36:52;;;;;;;5.50;3.70;;;14.50;40.60;;;;;;5040826;28;20644;-45
2023/03/28 07:39:17;;;;;;;5.43;3.33;;;14.50;40.50;;;;;;5044721;28;20232;-46
2023/03/28 07:41:43;;;;;;;5.60;3.20;;;14.60;41.00;;;;;;5043228;28;20473;-45
2023/03/28 07:44:08;;;;;;;5.67;3.47;;;14.60;40.00;;;;;;5039630;28;20228;-46
2023/03/28 07:46:36;;;;;;;7.53;3.00;;;14.70;39.90;;;;;;5045951;28;20196;-45
2023/03/28 07:49:02;;;;;;;6.73;3.17;;;14.80;39.40;;;;;;5042434;28;20247;-46
2023/03/28 07:51:28;;;;;;;7.70;3.20;;;14.80;39.10;;;;;;5033521;28;20501;-46
2023/03/28 07:53:54;;;;;;;3.60;2.83;;;14.90;39.50;;;;;;5048088;28;20471;-46
2023/03/28 07:56:20;;;;;;;6.10;2.97;;;15.00;40.10;;;;;;5045491;28;20477;-46
2023/03/28 07:58:47;;;;;;;3.70;2.97;;;15.10;39.00;;;;;;5041026;28;20450;-47
2023/03/28 08:01:17;;;;;;;5.87;2.90;;;15.20;38.80;;;;;;5043225;28;20205;-46
2023/03/28 08:03:43;;;;;;;9.03;2.63;;;15.00;37.60;;;;;;5043614;28;20443;-45
2023/03/28 08:06:09;;;;;;;4.77;2.17;;;14.90;37.90;;;;;;5038292;28;20570;-45
2023/03/28 08:08:36;;;;;;;6.87;3.23;;;14.80;37.80;;;;;;5043891;28;20196;-45
2023/03/28 08:11:01;;;;;;;5.70;2.50;;;14.70;38.20;;;;;;5043172;28;20848;-46
2023/03/28 08:13:27;;;;;;;5.27;3.20;;;14.50;38.50;;;;;;5036416;28;20451;-46
2023/03/28 08:15:56;;;;;;;8.23;2.90;;;14.30;38.20;;;;;;5033659;28;20208;-46
2023/03/28 08:18:24;;;;;;;7.60;2.80;;;14.20;38.60;;;;;;5041658;28;20307;-46
2023/03/28 08:21:00;;;;;;;7.90;3.23;;;13.90;38.60;;;;;;5039828;28;20494;-45
2023/03/28 08:23:26;;;;;;;8.43;3.47;;;13.80;39.10;;;;;;5035051;28;20443;-46
2023/03/28 08:25:57;;;;;;;6.33;2.93;;;13.70;39.50;;;;;;5042460;28;20475;-45
2023/03/28 08:28:23;;;;;;;3.80;2.70;;;13.60;39.90;;;;;;5038490;28;20549;-46
2023/03/28 08:30:48;;;;;;;4.20;3.40;;;13.50;39.60;;;;;;5044511;28;20482;-46
2023/03/28 08:33:14;;;;;;;5.60;2.97;;;13.50;40.10;;;;;;5037295;28;20303;-45
2023/03/28 08:35:40;;;;;;;5.20;2.53;;;13.70;40.10;;;;;;5039317;28;20189;-45
2023/03/28 08:38:06;;;;;;;5.17;2.80;;;13.80;39.90;;;;;;5036239;28;20675;-47
2023/03/28 08:40:36;;;;;;;6.33;2.83;;;13.50;39.40;;;;;;5039653;28;20448;-45
2023/03/28 08:43:19;;;;;;;6.20;3.20;;;13.40;39.50;;;;;;5037047;28;20193;-45
2023/03/28 08:45:44;;;;;;;4.53;2.80;;;13.40;39.40;;;;;;5045755;28;20435;-46
2023/03/28 08:48:10;;;;;;;7.43;3.10;;;13.50;39.20;;;;;;5034606;28;20455;-45
2023/03/28 08:50:40;;;;;;;5.70;2.60;;;13.40;38.90;;;;;;5037278;28;22428;-47
2023/03/28 08:53:42;;;;;;;5.27;3.07;;;13.50;38.90;;;;;;5039881;28;20343;-46
2023/03/28 08:56:08;;;;;;;6.87;2.70;;;13.30;38.20;;;;;;5027956;28;20451;-46
2023/03/28 08:58:41;;;;;;;4.20;3.00;;;13.50;39.00;;;;;;5039864;28;20477;-45
2023/03/28 09:01:08;;;;;;;6.43;3.00;;;13.70;38.90;;;;;;5035430;28;20530;-45
2023/03/28 09:03:35;;;;;;;4.50;3.20;;;13.90;38.00;;;;;;5040645;28;20442;-46
2023/03/28 09:06:24;;;;;;;4.20;2.70;;;13.90;37.70;;;;;;5034368;28;20441;-45
2023/03/28 09:09:21;;;;;;;3.87;2.20;;;13.80;38.40;;;;;;5033319;28;20466;-45
2023/03/28 09:12:01;;;;;;;5.33;2.33;;;13.80;38.20;;;;;;5036583;28;20483;-46
2023/03/28 09:14:32;;;;;;;5.17;2.40;;;14.00;39.10;;;;;;5044469;28;20933;-45
2023/03/28 09:17:19;;;;;;;2.50;2.10;;;14.10;39.00;;;;;;5044930;28;20447;-45
2023/03/28 09:19:54;;;;;;;6.27;2.23;;;14.10;38.50;;;;;;5036510;28;20954;-45
2023/03/28 09:22:31;;;;;;;3.43;2.23;;;14.20;37.60;;;;;;5045677;28;20438;-46
2023/03/28 09:25:07;;;;;;;5.83;2.50;;;14.40;38.00;;;;;;5042227;28;20455;-47
2023/03/28 09:27:54;;;;;;;9.30;2.60;;;14.40;37.10;;;;;;5049107;28;20442;-48
2023/03/28 09:30:43;;;;;;;5.97;2.60;;;14.30;36.80;;;;;;5041599;28;20574;-47
2023/03/28 09:33:24;;;;;;;3.93;2.10;;;14.30;36.50;;;;;;5040576;28;20455;-47
2023/03/28 09:35:54;;;;;;;6.30;3.00;;;14.30;35.90;;;;;;5040547;28;20815;-45
2023/03/28 09:38:24;;;;;;;5.23;2.23;;;14.30;35.20;;;;;;5039563;28;20486;-46
2023/03/28 09:40:53;;;;;;;2.60;2.27;;;14.30;35.40;;;;;;5049619;28;20497;-47
2023/03/28 09:43:40;;;;;;;6.67;2.40;;;14.40;36.30;;;;;;5043822;28;20446;-46
2023/03/28 09:46:10;;;;;;;4.63;2.63;;;14.50;35.30;;;;;;5039656;28;20490;-47
2023/03/28 09:48:37;;;;;;;4.43;1.93;;;14.50;35.60;;;;;;5039378;28;20454;-47
2023/03/28 09:51:05;;;;;;;4.70;2.40;;;14.60;35.20;;;;;;5045242;28;20492;-46
2023/03/28 09:53:33;;;;;;;4.00;2.23;;;14.70;35.20;;;;;;5041929;28;21931;-45
2023/03/28 09:56:22;;;;;;;3.93;2.70;;;14.70;34.80;;;;;;5040686;28;20933;-46
2023/03/28 09:58:50;;;;;;;4.97;3.43;;;14.90;36.00;;;;;;5039603;28;20994;-46
2023/03/28 10:01:32;;;;;;;4.20;2.37;;;15.00;35.90;;;;;;5038749;28;20451;-46
2023/03/28 10:03:59;;;;;;;10.27;3.90;;;15.10;35.00;;;;;;5039585;28;20947;-45
2023/03/28 10:06:27;;;;;;;3.73;2.00;;;15.10;33.80;;;;;;5042806;28;20498;-45
2023/03/28 10:09:27;;;;;;;4.87;2.30;;;15.20;33.00;;;;;;5040918;28;20462;-45
2023/03/28 10:12:03;;;;;;;3.90;2.53;;;15.20;33.00;;;;;;5042549;28;21290;-46
2023/03/28 10:14:35;;;;;;;2.70;2.00;;;14.90;33.10;;;;;;5040710;28;20451;-47
2023/03/28 10:17:02;;;;;;;7.53;2.87;;;14.90;33.50;;;;;;5043852;28;20516;-46
2023/03/28 10:19:34;;;;;;;4.03;1.83;;;14.90;32.90;;;;;;5039167;28;20451;-49
2023/03/28 10:22:04;;;;;;;3.80;3.20;;;14.90;32.50;;;;;;5042321;28;20482;-45
2023/03/28 10:24:31;;;;;;;2.97;2.17;;;14.90;32.50;;;;;;5048205;28;20446;-46
2023/03/28 10:27:15;;;;;;;6.00;3.57;;;14.90;32.20;;;;;;5041052;28;20431;-46
2023/03/28 10:29:41;;;;;;;5.90;3.63;;;15.00;32.10;;;;;;5041699;28;20844;-46
2023/03/28 10:32:11;;;;;;;7.77;3.40;;;15.00;32.40;;;;;;5041283;28;20501;-47
2023/03/28 10:34:37;;;;;;;3.27;1.80;;;15.00;31.70;;;;;;5035399;28;20817;-46
2023/03/28 10:37:02;;;;;;;6.83;2.00;;;15.00;31.50;;;;;;5039922;28;20443;-46
2023/03/28 10:39:31;;;;;;;3.07;1.67;;;15.10;31.20;;;;;;5042226;28;20192;-47
2023/03/28 10:42:00;;;;;;;3.37;1.57;;;15.10;31.70;;;;;;5049577;28;20197;-47
2023/03/28 10:44:32;;;;;;;4.23;2.37;;;15.10;32.50;;;;;;5048962;28;20600;-46
2023/03/28 10:47:07;;;;;;;3.23;1.63;;;15.40;31.50;;;;;;5042404;28;20462;-46
2023/03/28 10:49:44;;;;;;;4.20;1.73;;;15.50;31.70;;;;;;5039782;28;20454;-46
2023/03/28 10:52:22;;;;;;;5.80;2.37;;;15.40;30.80;;;;;;5044830;28;20571;-46
2023/03/28 10:55:02;;;;;;;3.13;2.10;;;15.10;30.90;;;;;;5042949;28;20877;-47
2023/03/28 10:57:55;;;;;;;3.13;1.97;;;15.20;31.60;;;;;;5045250;28;21013;-46
2023/03/28 11:00:40;;;;;;;2.87;2.00;;;15.10;31.00;;;;;;5034949;28;20523;-46
2023/03/28 11:03:38;;;;;;;3.63;2.07;;;15.30;31.80;;;;;;5031580;28;20432;-47
2023/03/28 11:06:31;;;;;;;6.00;2.20;;;15.50;30.80;;;;;;5011972;28;20498;-46
2023/03/28 11:09:25;;;;;;;2.30;1.70;;;15.60;30.30;;;;;;5047567;28;20437;-46
2023/03/28 11:12:09;;;;;;;3.70;1.80;;;15.60;30.50;;;;;;5007969;28;20479;-46
2023/03/28 11:14:35;;;;;;;7.13;1.90;;;15.60;29.50;;;;;;5038789;28;20550;-47
2023/03/28 11:17:06;;;;;;;2.00;1.63;;;15.60;30.50;;;;;;5041155;28;20439;-47
2023/03/28 11:19:43;;;;;;;2.83;2.00;;;15.90;30.30;;;;;;5048672;28;20192;-46
2023/03/28 11:22:37;;;;;;;3.07;1.90;;;16.20;29.60;;;;;;5039001;28;20807;-47
2023/03/28 11:25:17;;;;;;;4.77;2.07;;;16.20;29.00;;;;;;5046097;28;20469;-46
2023/03/28 11:28:05;;;;;;;2.83;1.70;;;16.10;28.70;;;;;;5047401;28;20777;-47
2023/03/28 11:30:32;;;;;;;8.27;1.70;;;16.20;28.40;;;;;;5040487;28;20486;-46
2023/03/28 11:33:23;;;;;;;2.17;1.50;;;16.30;28.10;;;;;;5043390;28;20439;-45
2023/03/28 11:35:55;;;;;;;4.83;2.40;;;16.20;28.00;;;;;;5039690;28;20450;-46
2023/03/28 11:38:31;;;;;;;4.43;3.10;;;15.80;28.10;;;;;;5035842;28;20562;-45
2023/03/28 11:41:06;;;;;;;3.67;1.90;;;15.50;29.50;;;;;;5041945;28;20530;-46
2023/03/28 11:43:48;;;;;;;5.73;2.30;;;15.40;29.60;;;;;;5038635;28;21420;-46
2023/03/28 11:46:28;;;;;;;5.40;2.03;;;15.60;30.10;;;;;;5042888;28;20454;-47
2023/03/28 11:49:21;;;;;;;2.80;1.90;;;15.90;29.80;;;;;;5033989;28;21002;-46
2023/03/28 11:52:15;;;;;;;5.43;2.07;;;16.00;29.20;;;;;;5043262;28;20498;-46
2023/03/28 11:54:48;;;;;;;3.63;2.20;;;16.20;29.00;;;;;;5046587;28;20467;-45
2023/03/28 11:57:30;;;;;;;3.60;2.07;;;16.30;29.60;;;;;;5038586;28;20470;-44
2023/03/28 12:00:15;;;;;;;5.70;2.10;;;16.40;29.50;;;;;;5041905;28;22550;-45
2023/03/28 12:02:55;;;;;;;4.23;2.33;;;16.40;29.10;;;;;;5030476;28;20942;-44
2023/03/28 12:05:44;;;;;;;3.33;2.13;;;16.30;28.60;;;;;;5042816;28;20480;-45
2023/03/28 12:08:22;;;;;;;3.40;2.20;;;16.50;28.50;;;;;;5037438;28;20464;-45
2023/03/28 12:10:56;;;;;;;3.43;1.73;;;16.70;28.60;;;;;;5039536;28;20495;-44
2023/03/28 12:13:22;;;;;;;5.77;1.87;;;16.90;28.20;;;;;;5031595;28;20588;-45
2023/03/28 12:16:09;;;;;;;2.57;2.00;;;16.90;27.60;;;;;;5042563;28;20895;-45
2023/03/28 12:18:46;;;;;;;2.50;1.60;;;17.10;27.60;;;;;;5048027;28;20196;-44
2023/03/28 12:21:12;;;;;;;3.13;1.90;;;17.20;28.20;;;;;;5035646;28;20531;-45
2023/03/28 12:23:59;;;;;;;5.20;2.40;;;17.40;29.40;;;;;;5041786;28;20810;-46
2023/03/28 12:26:39;;;;;;;2.97;1.87;;;17.60;28.20;;;;;;5036706;28;20462;-44
2023/03/28 12:29:45;;;;;;;1.80;1.70;;;17.60;27.70;;;;;;5050020;28;20481;-45
2023/03/28 12:32:20;;;;;;;2.60;1.87;;;17.50;27.20;;;;;;5033735;28;21044;-48
2023/03/28 12:34:58;;;;;;;3.20;2.10;;;16.60;27.20;;;;;;5040677;28;20504;-49
2023/03/28 12:37:31;;;;;;;2.87;1.63;;;16.90;28.30;;;;;;5044731;28;20541;-48
2023/03/28 12:39:56;;;;;;;2.83;2.20;;;17.20;28.80;;;;;;5036108;28;20451;-50
2023/03/28 12:42:25;;;;;;;2.50;2.17;;;17.20;27.10;;;;;;5038943;28;20450;-45
2023/03/28 12:45:02;;;;;;;2.97;1.90;;;17.20;27.60;;;;;;5044302;28;20546;-48
2023/03/28 12:48:01;;;;;;;3.20;1.93;;;17.10;27.80;;;;;;5041755;28;20446;-47
2023/03/28 12:50:53;;;;;;;2.73;2.10;;;17.20;28.40;;;;;;5031491;28;20500;-49
2023/03/28 12:53:20;;;;;;;6.03;2.30;;;17.30;28.00;;;;;;5038320;28;20504;-49
2023/03/28 12:55:48;;;;;;;3.60;2.10;;;17.40;28.00;;;;;;5038144;28;20985;-47
2023/03/28 12:58:34;;;;;;;4.63;2.00;;;17.70;28.00;;;;;;5040294;28;21097;-47
2023/03/28 13:01:06;;;;;;;2.30;2.10;;;18.00;28.00;;;;;;5030585;28;20499;-50
2023/03/28 13:04:00;;;;;;;4.40;1.90;;;18.00;27.10;;;;;;5031304;28;20445;-50
2023/03/28 13:06:41;;;;;;;4.10;2.57;;;18.10;27.70;;;;;;5037347;28;20456;-46
2023/03/28 13:09:34;;;;;;;2.50;1.60;;;18.10;27.00;;;;;;5034647;28;20463;-46
2023/03/28 13:12:30;;;;;;;3.07;1.80;;;18.10;27.60;;;;;;5041760;28;20490;-47
2023/03/28 13:15:16;;;;;;;3.43;2.23;;;18.20;27.50;;;;;;5032344;28;20458;-47
2023/03/28 13:18:18;;;;;;;1.93;1.70;;;17.80;27.50;;;;;;5023989;28;20458;-47